createdAt,value
2023-03-01T00:01:13.466Z,3.00
2023-03-01T00:03:41.800Z,2.20
2023-03-01T00:06:10.107Z,1.33
2023-03-01T00:08:38.461Z,1.47
2023-03-01T00:11:07.225Z,1.30
2023-03-01T00:13:35.556Z,2.03
2023-03-01T00:16:06.035Z,1.37
2023-03-01T00:18:34.342Z,1.47
2023-03-01T00:21:02.781Z,2.87
2023-03-01T00:23:31.108Z,1.20
2023-03-01T00:25:59.433Z,0.60
2023-03-01T00:28:27.780Z,1.67
2023-03-01T00:30:56.133Z,0.80
2023-03-01T00:33:25.771Z,2.27
2023-03-01T00:35:54.211Z,3.60
2023-03-01T00:38:22.559Z,0.90
2023-03-01T00:40:50.891Z,1.27
2023-03-01T00:43:19.255Z,1.67
2023-03-01T00:45:47.673Z,0.90
2023-03-01T00:48:15.960Z,1.33
2023-03-01T00:50:45.637Z,0.83
2023-03-01T00:53:13.958Z,1.33
2023-03-01T00:55:42.228Z,2.20
2023-03-01T00:58:10.599Z,1.80
2023-03-01T01:00:38.905Z,1.67
2023-03-01T01:03:07.207Z,0.93
2023-03-01T01:05:37.017Z,1.03
2023-03-01T01:08:06.814Z,0.87
2023-03-01T01:10:36.156Z,0.63
2023-03-01T01:13:04.526Z,0.70
2023-03-01T01:15:35.041Z,1.03
2023-03-01T01:18:03.372Z,0.70
2023-03-01T01:20:31.728Z,1.47
2023-03-01T01:23:00.027Z,2.80
2023-03-01T01:25:29.742Z,2.53
2023-03-01T01:27:58.018Z,1.20
2023-03-01T01:30:26.283Z,1.23
2023-03-01T01:32:54.564Z,0.47
2023-03-01T01:35:22.980Z,4.33
2023-03-01T01:37:51.319Z,2.63
2023-03-01T01:40:19.706Z,0.73
2023-03-01T01:42:49.521Z,1.40
2023-03-01T01:45:31.806Z,1.33
2023-03-01T01:48:01.469Z,0.80
2023-03-01T01:50:39.376Z,1.63
2023-03-01T01:53:08.480Z,2.10
2023-03-01T01:55:36.894Z,1.07
2023-03-01T01:58:07.246Z,1.27
2023-03-01T02:00:35.569Z,5.07
2023-03-01T02:03:05.215Z,1.00
2023-03-01T02:05:36.232Z,0.93
2023-03-01T02:08:04.521Z,1.67
2023-03-01T02:10:32.829Z,0.50
2023-03-01T02:13:01.190Z,1.37
2023-03-01T02:15:30.819Z,0.73
2023-03-01T02:17:59.114Z,0.53
2023-03-01T02:20:29.559Z,1.20
2023-03-01T02:22:57.856Z,1.97
2023-03-01T02:25:30.005Z,0.70
2023-03-01T02:27:59.608Z,1.13
2023-03-01T02:30:29.233Z,1.17
2023-03-01T02:33:03.326Z,0.50
2023-03-01T02:35:31.758Z,0.80
2023-03-01T02:38:01.617Z,1.00
2023-03-01T02:40:30.280Z,1.90
2023-03-01T02:42:58.820Z,0.67
2023-03-01T02:45:27.277Z,1.27
2023-03-01T02:47:57.706Z,0.97
2023-03-01T02:50:28.263Z,1.50
2023-03-01T02:52:58.488Z,2.10
2023-03-01T02:55:26.870Z,2.00
2023-03-01T02:57:55.133Z,1.10
2023-03-01T03:00:23.897Z,3.33
2023-03-01T03:02:53.075Z,0.80
2023-03-01T03:05:23.102Z,0.70
2023-03-01T03:07:51.527Z,1.27
2023-03-01T03:10:21.204Z,0.93
2023-03-01T03:12:51.533Z,1.50
2023-03-01T03:15:19.823Z,1.13
2023-03-01T03:17:48.102Z,0.73
2023-03-01T03:20:20.125Z,0.70
2023-03-01T03:22:50.189Z,0.93
2023-03-01T03:25:18.623Z,0.67
2023-03-01T03:27:47.727Z,0.60
2023-03-01T03:30:16.457Z,0.60
2023-03-01T03:32:51.482Z,0.87
2023-03-01T03:35:19.820Z,2.17
2023-03-01T03:38:07.231Z,0.60
2023-03-01T03:40:37.543Z,1.33
2023-03-01T03:43:05.922Z,0.60
2023-03-01T03:45:36.008Z,0.63
2023-03-01T03:48:04.637Z,0.73
2023-03-01T03:50:32.927Z,1.23
2023-03-01T03:53:02.800Z,0.50
2023-03-01T03:55:31.904Z,0.77
2023-03-01T03:58:03.417Z,1.00
2023-03-01T04:00:31.760Z,0.50
2023-03-01T04:03:00.104Z,0.50
2023-03-01T04:05:28.592Z,0.60
2023-03-01T04:08:08.197Z,1.00
2023-03-01T04:10:37.610Z,0.50
2023-03-01T04:13:07.776Z,0.90
2023-03-01T04:15:36.104Z,0.50
2023-03-01T04:18:04.398Z,0.70
2023-03-01T04:20:34.554Z,0.60
2023-03-01T04:23:11.571Z,1.03
2023-03-01T04:25:40.849Z,1.33
2023-03-01T04:28:10.681Z,0.63
2023-03-01T04:30:39.113Z,1.30
2023-03-01T04:33:07.433Z,1.83
2023-03-01T04:35:36.068Z,0.77
2023-03-01T04:38:04.489Z,0.80
2023-03-01T04:40:32.776Z,0.93
2023-03-01T04:43:01.047Z,0.60
2023-03-01T04:45:30.910Z,1.33
2023-03-01T04:47:59.568Z,0.60
2023-03-01T04:50:27.882Z,0.50
2023-03-01T04:52:59.384Z,0.60
2023-03-01T04:55:28.121Z,0.63
2023-03-01T04:57:56.529Z,0.97
2023-03-01T05:00:25.058Z,1.10
2023-03-01T05:02:57.947Z,0.70
2023-03-01T05:05:28.080Z,0.47
2023-03-01T05:07:56.917Z,1.97
2023-03-01T05:10:25.235Z,0.60
2023-03-01T05:12:54.305Z,2.40
2023-03-01T05:15:26.536Z,0.90
2023-03-01T05:17:56.493Z,0.77
2023-03-01T05:20:25.035Z,0.70
2023-03-01T05:22:53.542Z,2.80
2023-03-01T05:25:22.471Z,0.60
2023-03-01T05:27:50.819Z,0.50
2023-03-01T05:30:19.594Z,0.63
2023-03-01T05:32:48.244Z,0.57
2023-03-01T05:35:18.892Z,0.53
2023-03-01T05:37:48.302Z,0.90
2023-03-01T05:40:17.528Z,1.50
2023-03-01T05:42:46.177Z,1.57
2023-03-01T05:45:14.505Z,1.20
2023-03-01T05:47:44.838Z,0.90
2023-03-01T05:50:14.253Z,1.00
2023-03-01T05:52:43.974Z,0.77
2023-03-01T05:55:12.952Z,0.70
2023-03-01T05:57:41.299Z,0.83
2023-03-01T06:00:10.302Z,1.27
2023-03-01T06:02:38.858Z,0.70
2023-03-01T06:05:07.903Z,0.60
2023-03-01T06:07:36.333Z,0.87
2023-03-01T06:10:06.164Z,1.07
2023-03-01T06:12:34.483Z,1.10
2023-03-01T06:15:02.780Z,1.80
2023-03-01T06:17:31.884Z,0.83
2023-03-01T06:20:00.252Z,0.40
2023-03-01T06:22:28.561Z,0.87
2023-03-01T06:24:56.866Z,0.90
2023-03-01T06:27:26.616Z,0.70
2023-03-01T06:29:54.937Z,1.60
2023-03-01T06:32:23.269Z,0.97
2023-03-01T06:34:52.214Z,1.80
2023-03-01T06:37:20.540Z,1.83
2023-03-01T06:39:48.806Z,1.17
2023-03-01T06:42:17.583Z,1.30
2023-03-01T06:44:47.988Z,0.80
2023-03-01T06:47:16.359Z,1.03
2023-03-01T06:49:44.667Z,0.70
2023-03-01T06:52:13.014Z,0.87
2023-03-01T06:54:41.323Z,1.33
2023-03-01T06:57:09.620Z,0.70
2023-03-01T06:59:37.883Z,1.13
2023-03-01T07:02:07.525Z,0.70
2023-03-01T07:04:35.938Z,1.13
2023-03-01T07:07:04.298Z,0.97
2023-03-01T07:09:32.679Z,0.83
2023-03-01T07:12:01.007Z,0.77
2023-03-01T07:14:29.375Z,3.27
2023-03-01T07:16:57.683Z,1.40
2023-03-01T07:19:27.417Z,0.73
2023-03-01T07:21:56.601Z,0.70
2023-03-01T07:24:24.983Z,0.40
2023-03-01T07:26:54.607Z,0.67
2023-03-01T07:29:23.000Z,0.47
2023-03-01T07:31:51.481Z,0.93
2023-03-01T07:34:20.018Z,0.60
2023-03-01T07:36:49.819Z,0.53
2023-03-01T07:39:19.634Z,1.60
2023-03-01T07:41:48.078Z,0.40
2023-03-01T07:44:16.440Z,0.87
2023-03-01T07:46:44.837Z,0.93
2023-03-01T07:49:13.243Z,0.73
2023-03-01T07:51:41.655Z,0.40
2023-03-01T07:54:11.347Z,0.87
2023-03-01T07:56:39.753Z,0.60
2023-03-01T07:59:08.064Z,0.73
2023-03-01T08:01:36.713Z,1.27
2023-03-01T08:04:08.025Z,1.07
2023-03-01T08:06:36.493Z,0.93
2023-03-01T08:09:04.896Z,1.33
2023-03-01T08:11:34.676Z,1.37
2023-03-01T08:14:02.990Z,0.40
2023-03-01T08:16:31.949Z,1.10
2023-03-01T08:19:02.540Z,0.50
2023-03-01T08:21:30.870Z,0.87
2023-03-01T08:23:59.168Z,0.47
2023-03-01T08:26:27.572Z,0.50
2023-03-01T08:28:57.269Z,0.90
2023-03-01T08:31:27.157Z,0.60
2023-03-01T08:33:57.090Z,0.57
2023-03-01T08:36:25.505Z,0.60
2023-03-01T08:38:54.472Z,0.60
2023-03-01T08:41:22.905Z,0.67
2023-03-01T08:43:51.340Z,1.03
2023-03-01T08:46:21.096Z,0.63
2023-03-01T08:48:49.704Z,0.50
2023-03-01T08:51:21.483Z,0.70
2023-03-01T08:53:49.921Z,0.37
2023-03-01T08:56:19.240Z,0.60
2023-03-01T08:58:47.689Z,0.53
2023-03-01T09:01:16.577Z,0.30
2023-03-01T09:03:46.359Z,0.87
2023-03-01T09:06:16.845Z,0.80
2023-03-01T09:08:45.553Z,0.40
2023-03-01T09:11:14.325Z,0.80
2023-03-01T09:13:44.346Z,0.50
2023-03-01T09:16:13.305Z,0.50
2023-03-01T09:18:41.720Z,1.00
2023-03-01T09:21:12.116Z,0.97
2023-03-01T09:23:42.885Z,0.40
2023-03-01T09:26:11.645Z,0.40
2023-03-01T09:28:40.052Z,1.03
2023-03-01T09:31:08.414Z,1.07
2023-03-01T09:33:36.773Z,0.47
2023-03-01T09:36:05.814Z,0.60
2023-03-01T09:38:35.561Z,0.40
2023-03-01T09:41:03.936Z,0.40
2023-03-01T09:43:33.439Z,0.60
2023-03-01T09:46:02.081Z,0.23
2023-03-01T09:48:30.451Z,0.67
2023-03-01T09:50:58.866Z,0.50
2023-03-01T09:53:28.647Z,0.90
2023-03-01T09:55:59.628Z,0.50
2023-03-01T09:58:38.039Z,0.43
2023-03-01T10:01:07.788Z,0.80
2023-03-01T10:03:37.814Z,2.73
2023-03-01T10:06:07.332Z,0.47
2023-03-01T10:08:39.976Z,0.37
2023-03-01T10:11:24.575Z,0.40
2023-03-01T10:13:54.914Z,0.30
2023-03-01T10:16:24.366Z,0.30
2023-03-01T10:18:54.775Z,0.70
2023-03-01T10:21:23.710Z,0.40
2023-03-01T10:23:52.999Z,1.30
2023-03-01T10:26:25.705Z,0.67
2023-03-01T10:28:56.695Z,1.23
2023-03-01T10:31:29.340Z,1.53
2023-03-01T10:33:59.733Z,0.37
2023-03-01T10:36:28.109Z,0.60
2023-03-01T10:38:57.836Z,0.97
2023-03-01T10:41:28.150Z,0.60
2023-03-01T10:43:57.501Z,0.53
2023-03-01T10:46:26.613Z,0.80
2023-03-01T10:49:09.887Z,0.83
2023-03-01T10:51:38.199Z,2.13
2023-03-01T10:54:06.759Z,1.83
2023-03-01T10:56:39.525Z,0.53
2023-03-01T10:59:08.537Z,0.60
2023-03-01T11:01:37.277Z,0.93
2023-03-01T11:04:06.917Z,0.33
2023-03-01T11:06:35.344Z,0.40
2023-03-01T11:09:15.922Z,0.30
2023-03-01T11:11:45.587Z,0.20
2023-03-01T11:14:26.514Z,1.50
2023-03-01T11:17:02.173Z,0.93
2023-03-01T11:19:30.528Z,0.30
2023-03-01T11:22:00.198Z,0.23
2023-03-01T11:24:30.720Z,0.20
2023-03-01T11:27:00.394Z,0.30
2023-03-01T11:29:37.209Z,0.70
2023-03-01T11:32:09.533Z,1.60
2023-03-01T11:34:40.753Z,1.90
2023-03-01T11:37:13.068Z,7.03
2023-03-01T11:39:42.606Z,5.60
2023-03-01T11:42:19.111Z,8.63
2023-03-01T11:44:47.994Z,7.33
2023-03-01T11:47:25.658Z,6.87
2023-03-01T11:50:09.810Z,11.53
2023-03-01T11:52:40.076Z,13.13
2023-03-01T11:55:15.028Z,8.27
2023-03-01T11:58:01.078Z,8.60
2023-03-01T12:00:37.038Z,10.90
2023-03-01T12:03:12.539Z,3.63
2023-03-01T12:06:04.612Z,7.83
2023-03-01T12:08:34.865Z,6.03
2023-03-01T12:11:05.006Z,5.00
2023-03-01T12:13:42.652Z,2.30
2023-03-01T12:16:17.598Z,2.70
2023-03-01T12:18:55.451Z,5.90
2023-03-01T12:21:26.251Z,8.47
2023-03-01T12:23:59.302Z,3.83
2023-03-01T12:26:29.543Z,5.03
2023-03-01T12:29:24.820Z,3.10
2023-03-01T12:32:10.971Z,2.67
2023-03-01T12:34:57.122Z,2.80
2023-03-01T12:37:30.997Z,1.10
2023-03-01T12:40:06.034Z,2.33
2023-03-01T12:42:34.853Z,0.60
2023-03-01T12:45:24.365Z,1.23
2023-03-01T12:47:57.350Z,1.73
2023-03-01T12:50:26.220Z,0.80
2023-03-01T12:52:56.196Z,1.27
2023-03-01T12:55:27.684Z,1.17
2023-03-01T12:57:57.922Z,1.53
2023-03-01T13:00:29.016Z,1.17
2023-03-01T13:02:58.058Z,1.53
2023-03-01T13:05:27.352Z,0.63
2023-03-01T13:07:58.068Z,1.07
2023-03-01T13:10:27.871Z,0.50
2023-03-01T13:13:04.184Z,0.83
2023-03-01T13:15:35.969Z,1.50
2023-03-01T13:18:04.942Z,4.60
2023-03-01T13:20:34.664Z,0.87
2023-03-01T13:23:05.998Z,4.33
2023-03-01T13:25:42.089Z,0.63
2023-03-01T13:28:29.713Z,0.50
2023-03-01T13:30:58.009Z,1.10
2023-03-01T13:33:47.439Z,1.57
2023-03-01T13:36:32.387Z,1.90
2023-03-01T13:39:02.438Z,0.50
2023-03-01T13:41:45.621Z,1.03
2023-03-01T13:44:15.117Z,0.80
2023-03-01T13:46:43.483Z,1.27
2023-03-01T13:49:12.467Z,1.30
2023-03-01T13:51:40.854Z,1.53
2023-03-01T13:54:13.645Z,1.00
2023-03-01T13:56:41.984Z,0.80
2023-03-01T13:59:15.585Z,1.43
2023-03-01T14:01:44.274Z,1.00
2023-03-01T14:04:22.733Z,1.20
2023-03-01T14:06:51.133Z,1.10
2023-03-01T14:09:21.256Z,2.53
2023-03-01T14:11:56.013Z,1.60
2023-03-01T14:14:27.721Z,0.80
2023-03-01T14:16:57.509Z,0.60
2023-03-01T14:19:34.621Z,0.93
2023-03-01T14:22:05.320Z,1.03
2023-03-01T14:24:35.106Z,0.63
2023-03-01T14:27:03.640Z,1.07
2023-03-01T14:29:36.337Z,0.97
2023-03-01T14:32:11.639Z,0.70
2023-03-01T14:34:39.972Z,1.93
2023-03-01T14:37:14.772Z,1.10
2023-03-01T14:39:44.478Z,1.10
2023-03-01T14:42:15.729Z,0.90
2023-03-01T14:44:44.757Z,1.40
2023-03-01T14:47:15.506Z,0.97
2023-03-01T14:49:43.803Z,2.47
2023-03-01T14:52:19.938Z,0.70
2023-03-01T14:54:50.061Z,0.70
2023-03-01T14:57:18.552Z,1.27
2023-03-01T14:59:46.990Z,1.77
2023-03-01T15:02:18.043Z,0.60
2023-03-01T15:04:46.631Z,1.03
2023-03-01T15:07:15.134Z,0.70
2023-03-01T15:09:43.442Z,1.10
2023-03-01T15:12:34.868Z,1.60
2023-03-01T15:15:05.038Z,1.57
2023-03-01T15:17:34.079Z,0.70
2023-03-01T15:20:02.612Z,0.73
2023-03-01T15:22:31.007Z,0.67
2023-03-01T15:24:59.319Z,0.47
2023-03-01T15:27:29.040Z,2.07
2023-03-01T15:29:57.932Z,1.73
2023-03-01T15:32:27.769Z,1.40
2023-03-01T15:34:56.309Z,0.70
2023-03-01T15:37:43.829Z,1.40
2023-03-01T15:40:20.785Z,0.83
2023-03-01T15:42:50.452Z,1.37
2023-03-01T15:45:26.719Z,0.93
2023-03-01T15:47:55.441Z,1.20
2023-03-01T15:50:24.228Z,0.77
2023-03-01T15:52:52.670Z,0.67
2023-03-01T15:55:21.469Z,0.73
2023-03-01T15:57:51.239Z,1.07
2023-03-01T16:00:19.978Z,0.40
2023-03-01T16:02:48.327Z,0.60
2023-03-01T16:05:20.746Z,0.60
2023-03-01T16:07:49.063Z,0.63
2023-03-01T16:10:17.601Z,0.60
2023-03-01T16:12:48.237Z,0.80
2023-03-01T16:15:18.398Z,0.93
2023-03-01T16:17:46.754Z,1.00
2023-03-01T16:20:27.043Z,2.50
2023-03-01T16:22:56.151Z,1.43
2023-03-01T16:25:24.461Z,0.90
2023-03-01T16:27:53.112Z,0.70
2023-03-01T16:30:23.525Z,1.97
2023-03-01T16:32:52.603Z,0.63
2023-03-01T16:35:21.651Z,0.80
2023-03-01T16:37:50.009Z,1.23
2023-03-01T16:40:19.309Z,1.40
2023-03-01T16:42:47.618Z,2.00
2023-03-01T16:45:23.725Z,1.60
2023-03-01T16:47:56.013Z,1.50
2023-03-01T16:50:24.606Z,0.60
2023-03-01T16:52:53.400Z,1.77
2023-03-01T16:55:21.753Z,1.13
2023-03-01T16:57:50.231Z,2.57
2023-03-01T17:00:18.913Z,1.00
2023-03-01T17:02:47.273Z,0.80
2023-03-01T17:05:17.041Z,0.60
2023-03-01T17:07:45.376Z,0.70
2023-03-01T17:10:13.874Z,0.43
2023-03-01T17:12:42.213Z,0.73
2023-03-01T17:15:13.005Z,0.60
2023-03-01T17:17:41.427Z,0.57
2023-03-01T17:20:10.638Z,0.63
2023-03-01T17:22:40.388Z,1.40
2023-03-01T17:25:09.821Z,0.97
2023-03-01T17:27:38.680Z,0.40
2023-03-01T17:30:08.514Z,1.80
2023-03-01T17:32:36.886Z,1.37
2023-03-01T17:35:05.507Z,1.73
2023-03-01T17:37:33.979Z,0.30
2023-03-01T17:40:03.634Z,0.37
2023-03-01T17:42:31.950Z,0.50
2023-03-01T17:45:00.711Z,0.63
2023-03-01T17:47:29.157Z,6.47
2023-03-01T17:49:57.477Z,0.53
2023-03-01T17:52:25.902Z,0.70
2023-03-01T17:54:54.356Z,7.07
2023-03-01T17:57:24.079Z,29.20
2023-03-01T17:59:52.548Z,28.50
2023-03-01T18:02:20.980Z,27.63
2023-03-01T18:04:49.348Z,32.60
2023-03-01T18:07:17.696Z,23.80
2023-03-01T18:09:46.352Z,33.63
2023-03-01T18:12:14.640Z,20.53
2023-03-01T18:14:44.362Z,46.13
2023-03-01T18:17:12.722Z,66.23
2023-03-01T18:19:41.261Z,61.43
2023-03-01T18:22:09.956Z,51.27
2023-03-01T18:24:38.434Z,49.43
2023-03-01T18:27:06.800Z,52.00
2023-03-01T18:29:35.371Z,49.93
2023-03-01T18:32:05.032Z,47.93
2023-03-01T18:34:34.800Z,40.67
2023-03-01T18:37:10.516Z,41.93
2023-03-01T18:39:38.976Z,39.03
2023-03-01T18:42:07.467Z,29.93
2023-03-01T18:44:35.820Z,28.00
2023-03-01T18:47:05.484Z,30.93
2023-03-01T18:49:33.895Z,29.80
2023-03-01T18:52:02.262Z,29.53
2023-03-01T18:54:30.545Z,22.53
2023-03-01T18:56:58.913Z,30.00
2023-03-01T18:59:27.199Z,21.53
2023-03-01T19:01:55.599Z,23.37
2023-03-01T19:04:26.859Z,22.33
2023-03-01T19:06:55.307Z,24.83
2023-03-01T19:09:23.644Z,16.10
2023-03-01T19:11:52.021Z,22.63
2023-03-01T19:14:20.302Z,20.67
2023-03-01T19:16:48.593Z,21.53
2023-03-01T19:19:16.922Z,18.03
2023-03-01T19:21:55.951Z,17.47
2023-03-01T19:24:27.973Z,13.57
2023-03-01T19:26:56.667Z,17.13
2023-03-01T19:29:24.958Z,12.13
2023-03-01T19:31:53.325Z,16.53
2023-03-01T19:34:22.916Z,17.70
2023-03-01T19:36:52.935Z,13.77
2023-03-01T19:39:21.222Z,15.03
2023-03-01T19:41:50.168Z,13.07
2023-03-01T19:44:18.597Z,17.60
2023-03-01T19:46:47.010Z,16.33
2023-03-01T19:49:15.441Z,10.93
2023-03-01T19:51:43.733Z,13.83
2023-03-01T19:54:14.844Z,12.23
2023-03-01T19:56:43.137Z,13.53
2023-03-01T19:59:11.477Z,8.77
2023-03-01T20:01:42.314Z,10.47
2023-03-01T20:04:12.953Z,12.13
2023-03-01T20:06:41.668Z,13.27
2023-03-01T20:09:21.086Z,12.93
2023-03-01T20:11:51.633Z,8.57
2023-03-01T20:14:21.705Z,9.63
2023-03-01T20:16:50.789Z,13.83
2023-03-01T20:19:19.106Z,9.87
2023-03-01T20:21:47.397Z,7.53
2023-03-01T20:24:15.721Z,11.03
2023-03-01T20:26:44.055Z,8.73
2023-03-01T20:29:13.811Z,8.90
2023-03-01T20:31:42.742Z,9.67
2023-03-01T20:34:11.282Z,10.57
2023-03-01T20:36:40.996Z,8.33
2023-03-01T20:39:09.688Z,10.80
2023-03-01T20:41:38.026Z,8.03
2023-03-01T20:44:06.716Z,12.13
2023-03-01T20:46:36.766Z,9.77
2023-03-01T20:49:05.327Z,10.43
2023-03-01T20:51:33.712Z,10.03
2023-03-01T20:54:02.074Z,8.60
2023-03-01T20:56:30.893Z,8.53
2023-03-01T20:58:59.462Z,7.63
2023-03-01T21:01:27.885Z,10.27
2023-03-01T21:03:57.622Z,7.50
2023-03-01T21:06:26.002Z,7.90
2023-03-01T21:08:54.397Z,12.73
2023-03-01T21:11:25.173Z,7.17
2023-03-01T21:13:53.607Z,9.20
2023-03-01T21:16:22.205Z,9.73
2023-03-01T21:18:50.616Z,11.40
2023-03-01T21:21:20.978Z,10.03
2023-03-01T21:23:51.377Z,5.67
2023-03-01T21:26:20.813Z,9.50
2023-03-01T21:28:50.155Z,6.93
2023-03-01T21:31:18.975Z,10.07
2023-03-01T21:33:47.802Z,8.93
2023-03-01T21:36:16.077Z,6.80
2023-03-01T21:38:46.117Z,6.43
2023-03-01T21:41:15.106Z,10.20
2023-03-01T21:43:43.922Z,7.30
2023-03-01T21:46:13.121Z,7.63
2023-03-01T21:48:43.092Z,7.63
2023-03-01T21:51:12.648Z,6.57
2023-03-01T21:53:41.030Z,12.37
2023-03-01T21:56:10.805Z,9.53
2023-03-01T21:58:41.080Z,6.80
2023-03-01T22:01:10.001Z,12.80
2023-03-01T22:03:45.146Z,6.83
2023-03-01T22:06:19.156Z,7.23
2023-03-01T22:08:48.223Z,5.47
2023-03-01T22:11:19.041Z,7.10
2023-03-01T22:13:49.377Z,10.17
2023-03-01T22:16:17.786Z,6.20
2023-03-01T22:18:46.193Z,6.17
2023-03-01T22:21:14.526Z,8.37
2023-03-01T22:23:42.842Z,7.10
2023-03-01T22:26:11.170Z,5.57
2023-03-01T22:28:40.879Z,7.57
2023-03-01T22:31:09.145Z,5.10
2023-03-01T22:33:37.465Z,6.93
2023-03-01T22:36:06.270Z,5.53
2023-03-01T22:38:34.601Z,5.43
2023-03-01T22:41:03.454Z,5.83
2023-03-01T22:43:32.060Z,5.37
2023-03-01T22:46:01.840Z,5.30
2023-03-01T22:48:30.160Z,7.23
2023-03-01T22:50:58.441Z,5.33
2023-03-01T22:53:26.802Z,7.07
2023-03-01T22:55:55.133Z,3.57
2023-03-01T22:58:23.476Z,7.63
2023-03-01T23:00:51.905Z,5.47
2023-03-01T23:03:21.623Z,5.90
2023-03-01T23:05:49.972Z,6.33
2023-03-01T23:08:18.271Z,5.53
2023-03-01T23:10:46.594Z,6.53
2023-03-01T23:13:14.915Z,4.80
2023-03-01T23:15:44.800Z,6.03
2023-03-01T23:18:13.306Z,5.03
2023-03-01T23:20:43.120Z,4.90
2023-03-01T23:23:11.403Z,3.73
2023-03-01T23:25:39.705Z,4.90
2023-03-01T23:28:08.108Z,5.13
2023-03-01T23:30:36.478Z,5.63
2023-03-01T23:33:04.841Z,3.87
2023-03-01T23:35:33.156Z,2.50
2023-03-01T23:38:02.836Z,6.10
2023-03-01T23:40:31.127Z,3.40
2023-03-01T23:42:59.437Z,2.97
2023-03-01T23:45:27.805Z,2.60
2023-03-01T23:47:56.575Z,2.77
2023-03-01T23:50:25.351Z,4.07
2023-03-01T23:52:53.776Z,3.80
2023-03-01T23:55:23.457Z,3.07
2023-03-01T23:57:51.786Z,4.37
